Time;durP1;ratioP1;P1;durP2;ratioP2;P2;SDS_P1;SDS_P2;PMS_P1;PMS_P2;Temp;Humidity;BMP_temperature;BMP_pressure;BME280_temperature;BME280_humidity;BME280_pressure;Samples;Min_cycle;Max_cycle;Signal;HPM_P1;HPM_P2
2024/04/04 00:01:00;;;;;;;;;0.00;0.00;;;;;22.79;44.73;100563.03;4938915;28;45542;-74
2024/04/04 00:03:25;;;;;;;;;0.67;0.00;;;;;22.80;44.87;100556.69;4938764;28;45462;-74
2024/04/04 00:05:50;;;;;;;;;0.67;0.67;;;;;22.76;44.49;100553.63;4938754;28;45341;-74
2024/04/04 00:08:16;;;;;;;;;0.00;0.00;;;;;22.79;44.94;100555.09;4938912;28;45568;-73
2024/04/04 00:10:42;;;;;;;;;4.00;0.00;;;;;22.51;44.39;100524.81;4937307;28;45483;-74
2024/04/04 00:13:07;;;;;;;;;0.33;0.00;;;;;22.76;44.57;100544.84;4938632;28;45405;-74
2024/04/04 00:15:38;;;;;;;;;2.00;0.00;;;;;22.78;44.25;100541.00;4938772;28;45284;-74
2024/04/04 00:18:04;;;;;;;;;0.00;0.00;;;;;22.48;44.48;100511.97;4937467;28;45396;-74
2024/04/04 00:20:29;;;;;;;;;1.00;0.00;;;;;22.67;44.63;100520.25;4938680;28;45472;-73
2024/04/04 00:22:54;;;;;;;;;0.00;0.00;;;;;22.72;44.34;100528.50;4938401;28;46152;-74
2024/04/04 00:25:20;;;;;;;;;0.00;0.00;;;;;22.77;44.57;100536.69;4937910;28;45422;-74
2024/04/04 00:27:45;;;;;;;;;0.00;0.00;;;;;22.72;44.52;100518.72;4938642;28;45338;-74
2024/04/04 00:30:11;;;;;;;;;1.00;0.00;;;;;22.77;44.22;100520.78;4938644;28;45493;-74
2024/04/04 00:32:36;;;;;;;;;0.00;0.00;;;;;22.77;44.84;100520.78;4938376;28;46292;-74
2024/04/04 00:35:01;;;;;;;;;0.33;0.33;;;;;22.77;44.37;100514.69;4938436;28;45334;-74
2024/04/04 00:37:27;;;;;;;;;0.00;0.00;;;;;22.66;44.88;100506.22;4938440;28;45437;-75
2024/04/04 00:39:53;;;;;;;;;0.00;0.00;;;;;22.60;44.77;100488.41;4936786;28;45291;-74
2024/04/04 00:42:19;;;;;;;;;2.33;0.00;;;;;22.78;44.75;100513.66;4938217;28;46047;-74
2024/04/04 00:44:44;;;;;;;;;2.00;1.00;;;;;22.77;44.31;100510.16;4938169;28;45283;-74
2024/04/04 00:47:10;;;;;;;;;0.00;0.00;;;;;22.65;44.36;100491.31;4938365;28;45405;-74
2024/04/04 00:49:37;;;;;;;;;0.00;0.00;;;;;22.77;44.69;100512.03;4938221;28;45426;-74
2024/04/04 00:52:08;;;;;;;;;0.33;0.00;;;;;22.77;44.22;100502.22;4938102;28;46276;-74
2024/04/04 00:54:40;;;;;;;;;0.00;0.00;;;;;22.76;44.82;100497.94;4936492;28;45390;-74
2024/04/04 00:57:06;;;;;;;;;0.00;0.00;;;;;22.77;44.24;100496.91;4938081;28;45367;-74
2024/04/04 00:59:32;;;;;;;;;5.00;1.00;;;;;22.77;44.69;100488.94;4937970;28;45305;-73
2024/04/04 01:01:57;;;;;;;;;0.33;0.33;;;;;22.72;44.57;100475.44;4937041;28;45981;-74
2024/04/04 01:04:23;;;;;;;;;0.67;0.00;;;;;22.76;45.08;100479.38;4937857;28;45375;-74
2024/04/04 01:06:48;;;;;;;;;0.67;0.67;;;;;22.74;44.70;100473.44;4938184;28;45374;-74
2024/04/04 01:09:15;;;;;;;;;0.00;0.00;;;;;22.75;44.33;100477.72;4937647;28;45353;-74
2024/04/04 01:11:41;;;;;;;;;0.00;0.00;;;;;22.76;44.47;100473.25;4937728;28;46365;-74
2024/04/04 01:14:07;;;;;;;;;0.00;0.00;;;;;22.52;44.73;100437.16;4937768;28;45290;-74
2024/04/04 01:16:32;;;;;;;;;2.00;0.67;;;;;22.69;44.50;100457.28;4938006;28;45343;-74
2024/04/04 01:18:58;;;;;;;;;2.67;1.00;;;;;22.74;44.41;100468.16;4937844;28;45358;-73
2024/04/04 01:21:23;;;;;;;;;1.00;1.00;;;;;22.73;44.93;100464.66;4937845;28;46143;-74
2024/04/04 01:23:48;;;;;;;;;0.00;0.00;;;;;22.74;44.40;100452.22;4937191;28;45433;-74
2024/04/04 01:26:14;;;;;;;;;2.00;0.00;;;;;22.69;44.45;100450.09;4937679;28;45416;-74
2024/04/04 01:28:40;;;;;;;;;0.00;0.00;;;;;22.73;44.95;100451.41;4937883;28;45373;-74
2024/04/04 01:31:05;;;;;;;;;0.00;0.00;;;;;22.74;45.05;100452.22;4937699;28;46107;-73
2024/04/04 01:33:30;;;;;;;;;3.33;1.00;;;;;22.73;44.44;100443.44;4937596;28;45362;-75
2024/04/04 01:35:55;;;;;;;;;0.00;0.00;;;;;22.37;44.61;100381.63;4937570;28;45290;-74
2024/04/04 01:38:21;;;;;;;;;0.00;0.00;;;;;22.73;44.80;100435.50;4937199;28;45416;-75
2024/04/04 01:40:46;;;;;;;;;0.00;0.00;;;;;22.71;44.96;100432.22;4937445;28;45846;-75
2024/04/04 01:43:12;;;;;;;;;0.33;0.00;;;;;22.72;44.61;100431.19;4937436;28;45240;-76
2024/04/04 01:45:37;;;;;;;;;0.67;0.00;;;;;22.68;44.34;100421.97;4937532;28;45308;-75
2024/04/04 01:48:03;;;;;;;;;0.00;0.00;;;;;22.62;44.92;100398.88;4937536;28;45217;-75
2024/04/04 01:50:28;;;;;;;;;1.00;1.00;;;;;22.74;44.86;100421.19;4937317;28;45212;-75
2024/04/04 01:52:53;;;;;;;;;1.00;1.00;;;;;22.73;44.49;100421.41;4937026;28;45289;-75
2024/04/04 01:55:19;;;;;;;;;0.00;0.00;;;;;22.74;44.58;100412.44;4937586;28;45278;-75
2024/04/04 01:57:44;;;;;;;;;1.00;0.00;;;;;22.73;44.30;100418.75;4937547;28;45483;-75
2024/04/04 02:00:10;;;;;;;;;0.00;0.00;;;;;22.71;44.97;100397.75;4937158;28;45427;-75
2024/04/04 02:02:35;;;;;;;;;0.33;0.33;;;;;22.73;44.80;100402.84;4937290;28;45465;-75
2024/04/04 02:05:00;;;;;;;;;0.00;0.00;;;;;22.73;44.53;100400.19;4937347;28;45403;-74
2024/04/04 02:07:26;;;;;;;;;3.67;0.00;;;;;22.70;44.89;100385.50;4936970;28;45414;-73
2024/04/04 02:09:51;;;;;;;;;0.00;0.00;;;;;22.71;44.47;100387.16;4937140;28;45355;-76
2024/04/04 02:12:16;;;;;;;;;1.00;0.00;;;;;22.72;45.03;100394.06;4935930;28;45397;-76
2024/04/04 02:14:42;;;;;;;;;0.00;0.00;;;;;22.44;44.71;100343.72;4940661;28;45465;-75
2024/04/04 02:17:07;;;;;;;;;1.00;1.00;;;;;22.74;44.58;100388.59;4940596;28;45416;-75
2024/04/04 02:19:32;;;;;;;;;0.00;0.00;;;;;22.44;45.04;100339.22;4940383;28;45494;-75
2024/04/04 02:21:58;;;;;;;;;0.33;0.33;;;;;22.72;44.73;100377.34;4940155;28;45439;-76
2024/04/04 02:24:23;;;;;;;;;1.00;0.00;;;;;22.72;44.95;100369.38;4940452;28;45390;-75
2024/04/04 02:26:50;;;;;;;;;0.00;0.00;;;;;22.61;44.50;100360.13;4940303;28;45353;-75
2024/04/04 02:29:15;;;;;;;;;0.00;0.00;;;;;22.72;44.37;100372.84;4940324;28;46465;-75
2024/04/04 02:31:41;;;;;;;;;2.00;1.00;;;;;22.70;44.61;100364.28;4940130;28;45488;-75
2024/04/04 02:34:06;;;;;;;;;0.00;0.00;;;;;22.71;44.51;100363.28;4940310;28;45413;-74
2024/04/04 02:36:32;;;;;;;;;0.33;0.00;;;;;22.68;44.51;100346.91;4939710;28;45338;-75
2024/04/04 02:38:57;;;;;;;;;1.00;0.00;;;;;22.62;44.91;100346.66;4939881;28;45609;-73
2024/04/04 02:41:23;;;;;;;;;0.00;0.00;;;;;22.71;45.05;100351.84;4940153;28;45406;-73
2024/04/04 02:43:48;;;;;;;;;3.00;0.00;;;;;22.66;44.96;100344.44;4940290;28;45350;-72
2024/04/04 02:46:13;;;;;;;;;0.00;0.00;;;;;22.71;44.42;100357.16;4940122;28;45348;-73
2024/04/04 02:48:39;;;;;;;;;0.00;0.00;;;;;22.70;44.93;100353.66;4939977;28;46200;-75
2024/04/04 02:51:04;;;;;;;;;1.00;0.00;;;;;22.70;44.56;100351.03;4939675;28;45254;-75
2024/04/04 02:53:29;;;;;;;;;0.67;0.67;;;;;22.60;44.73;100335.44;4938754;28;45434;-75
2024/04/04 02:55:59;;;;;;;;;0.00;0.00;;;;;22.70;44.89;100348.38;4939975;28;45405;-75
2024/04/04 02:58:25;;;;;;;;;1.67;0.00;;;;;22.71;44.86;100362.44;4939709;28;45531;-74
2024/04/04 03:00:52;;;;;;;;;0.00;0.00;;;;;22.71;44.55;100354.50;4939838;28;45388;-75
2024/04/04 03:03:17;;;;;;;;;0.00;0.00;;;;;22.71;44.50;100359.81;4939887;28;45569;-75
2024/04/04 03:05:44;;;;;;;;;0.00;0.00;;;;;22.66;44.42;100351.59;4939385;28;45469;-75
2024/04/04 03:08:10;;;;;;;;;2.00;0.00;;;;;22.72;44.25;100358.75;4939605;28;47193;-75
2024/04/04 03:10:36;;;;;;;;;1.00;0.00;;;;;22.26;44.42;100307.94;4938289;28;45881;-75
2024/04/04 03:13:03;;;;;;;;;0.00;0.00;;;;;22.71;44.68;100378.38;4939638;28;45342;-76
2024/04/04 03:15:29;;;;;;;;;0.00;0.00;;;;;22.73;44.70;100390.41;4939654;28;45377;-75
2024/04/04 03:17:54;;;;;;;;;0.67;0.00;;;;;22.12;44.67;100294.59;4939315;28;47159;-75
2024/04/04 03:20:20;;;;;;;;;1.00;1.00;;;;;22.74;44.68;100383.28;4939166;28;45473;-75
2024/04/04 03:22:46;;;;;;;;;0.00;0.00;;;;;22.72;44.53;100369.38;4939580;28;45433;-75
2024/04/04 03:25:11;;;;;;;;;0.00;0.00;;;;;22.73;44.85;100368.38;4938766;28;45422;-73
2024/04/04 03:27:37;;;;;;;;;0.00;0.00;;;;;22.58;44.47;100348.09;4939321;28;46166;-75
2024/04/04 03:30:03;;;;;;;;;0.00;0.00;;;;;22.72;44.94;100356.13;4939667;28;45415;-74
2024/04/04 03:32:28;;;;;;;;;0.00;0.00;;;;;22.69;44.50;100354.66;4939539;28;45228;-75
2024/04/04 03:34:53;;;;;;;;;3.00;0.00;;;;;22.71;45.05;100346.53;4939102;28;45366;-75
2024/04/04 03:37:19;;;;;;;;;0.00;0.00;;;;;22.71;44.96;100341.25;4939069;28;46426;-74
2024/04/04 03:39:47;;;;;;;;;0.00;0.00;;;;;22.71;44.76;100351.84;4939211;28;45292;-75
2024/04/04 03:42:12;;;;;;;;;0.00;0.00;;;;;22.70;44.39;100348.38;4939245;28;45334;-75
2024/04/04 03:44:38;;;;;;;;;0.00;0.00;;;;;22.70;44.72;100345.72;4939148;28;45368;-76
2024/04/04 03:47:03;;;;;;;;;0.00;0.00;;;;;22.71;44.61;100349.19;4939030;28;47186;-76
2024/04/04 03:49:29;;;;;;;;;0.00;0.00;;;;;22.70;44.79;100361.63;4938777;28;45466;-75
2024/04/04 03:51:54;;;;;;;;;0.67;0.00;;;;;22.59;44.61;100346.22;4939214;28;45554;-74
2024/04/04 03:54:19;;;;;;;;;0.67;0.00;;;;;22.72;44.96;100372.03;4939163;28;45222;-74
2024/04/04 03:56:45;;;;;;;;;0.00;0.00;;;;;22.60;45.09;100374.41;4939011;28;46224;-74
2024/04/04 03:59:10;;;;;;;;;1.00;0.00;;;;;22.47;44.83;100362.72;4938965;28;45306;-74
2024/04/04 04:01:35;;;;;;;;;1.00;1.00;;;;;22.70;44.43;100401.41;4938946;28;45291;-75
2024/04/04 04:04:01;;;;;;;;;0.00;0.00;;;;;22.70;44.59;100397.94;4938611;28;45464;-75
2024/04/04 04:06:26;;;;;;;;;0.00;0.00;;;;;22.67;44.71;100406.25;4938926;28;46108;-76
2024/04/04 04:08:51;;;;;;;;;0.00;0.00;;;;;22.51;44.72;100385.16;4938849;28;45414;-76
2024/04/04 04:11:17;;;;;;;;;0.00;0.00;;;;;22.60;45.00;100375.22;4938765;28;45518;-75
2024/04/04 04:13:46;;;;;;;;;0.00;0.00;;;;;22.51;44.89;100357.81;4937711;28;45225;-75
2024/04/04 04:16:11;;;;;;;;;0.00;0.00;;;;;22.67;44.69;100385.84;4938708;28;47038;-75
2024/04/04 04:18:37;;;;;;;;;0.00;0.00;;;;;22.69;44.94;100383.81;4938236;28;45874;-75
2024/04/04 04:21:20;;;;;;;;;0.67;0.00;;;;;22.56;45.01;100355.41;4938806;28;45322;-75
2024/04/04 04:23:51;;;;;;;;;0.00;0.00;;;;;22.70;44.75;100372.22;4938546;28;45435;-75
2024/04/04 04:26:17;;;;;;;;;0.00;0.00;;;;;22.70;44.47;100382.84;4938108;28;47130;-75
2024/04/04 04:28:43;;;;;;;;;2.00;0.00;;;;;22.59;44.92;100359.50;4938663;28;45262;-75
2024/04/04 04:31:28;;;;;;;;;0.00;0.00;;;;;22.70;44.47;100385.50;4938595;28;45247;-75
2024/04/04 04:33:55;;;;;;;;;0.00;0.00;;;;;22.70;44.43;100396.09;4938551;28;45290;-75
2024/04/04 04:36:24;;;;;;;;;0.00;0.00;;;;;22.71;44.38;100384.50;4936953;28;46081;-75
2024/04/04 04:38:49;;;;;;;;;0.00;0.00;;;;;22.70;44.65;100398.75;4938296;28;45422;-75
2024/04/04 04:41:15;;;;;;;;;0.00;0.00;;;;;22.66;44.76;100386.06;4938531;28;45610;-75
2024/04/04 04:43:42;;;;;;;;;0.00;0.00;;;;;22.63;44.40;100385.44;4938437;28;45318;-75
2024/04/04 04:46:08;;;;;;;;;0.00;0.00;;;;;22.71;44.85;100389.78;4937929;28;46693;-74
2024/04/04 04:48:34;;;;;;;;;0.00;0.00;;;;;22.71;44.75;100391.63;4938191;28;45328;-74
2024/04/04 04:50:59;;;;;;;;;2.00;0.00;;;;;22.68;44.99;100399.94;4938197;28;45312;-74
2024/04/04 04:53:24;;;;;;;;;0.00;0.00;;;;;22.19;44.90;100339.69;4938299;28;45315;-75
2024/04/04 04:55:50;;;;;;;;;1.00;1.00;;;;;22.68;44.57;100421.16;4938115;28;45327;-75
2024/04/04 04:58:19;;;;;;;;;0.00;0.00;;;;;22.70;44.75;100419.97;4938097;28;45437;-75
2024/04/04 05:00:44;;;;;;;;;0.00;0.00;;;;;22.70;44.96;100419.97;4937759;28;45415;-75
2024/04/04 05:03:09;;;;;;;;;0.67;0.00;;;;;22.58;44.85;100397.63;4938106;28;45573;-75
2024/04/04 05:05:35;;;;;;;;;0.00;0.00;;;;;22.65;44.47;100406.44;4937911;28;45687;-75
2024/04/04 05:08:01;;;;;;;;;0.33;0.00;;;;;22.67;44.37;100399.09;4937949;28;45666;-75
2024/04/04 05:10:28;;;;;;;;;0.00;0.00;;;;;22.68;44.76;100414.00;4938031;28;45498;-75
2024/04/04 05:12:53;;;;;;;;;0.67;0.00;;;;;22.44;44.73;100383.47;4937821;28;45454;-75
2024/04/04 05:15:18;;;;;;;;;0.00;0.00;;;;;22.68;44.46;100413.19;4937255;28;46282;-75
2024/04/04 05:17:44;;;;;;;;;1.00;0.00;;;;;22.66;45.00;100424.00;4937835;28;45996;-74
2024/04/04 05:20:11;;;;;;;;;0.00;0.00;;;;;22.68;45.00;100419.31;4937844;28;45207;-74
2024/04/04 05:22:36;;;;;;;;;0.00;0.00;;;;;22.57;44.64;100399.47;4937858;28;45535;-75
2024/04/04 05:25:01;;;;;;;;;0.00;0.00;;;;;22.69;44.43;100423.59;4937085;28;46526;-74
2024/04/04 05:27:27;;;;;;;;;1.67;0.00;;;;;22.66;44.79;100424.00;4937461;28;45491;-76
2024/04/04 05:29:53;;;;;;;;;0.33;0.00;;;;;22.69;44.73;100425.44;4937508;28;45366;-75
2024/04/04 05:32:19;;;;;;;;;0.33;0.00;;;;;22.68;45.00;100429.09;4937662;28;45343;-75
2024/04/04 05:34:47;;;;;;;;;0.00;0.00;;;;;22.66;44.29;100434.63;4932365;28;46814;-76
2024/04/04 05:37:13;;;;;;;;;0.00;0.00;;;;;22.50;44.61;100418.00;4935327;28;45385;-78
2024/04/04 05:39:38;;;;;;;;;0.00;0.00;;;;;22.60;45.00;100433.56;4935515;28;45609;-79
2024/04/04 05:42:03;;;;;;;;;0.00;0.00;;;;;22.67;45.08;100440.72;4935993;28;45552;-78
2024/04/04 05:44:29;;;;;;;;;0.00;0.00;;;;;22.71;44.66;100447.31;4935170;28;46119;-77
2024/04/04 05:46:54;;;;;;;;;0.00;0.00;;;;;22.70;44.74;100453.63;4929956;28;45528;-76
2024/04/04 05:49:21;;;;;;;;;0.00;0.00;;;;;22.73;44.63;100445.28;4933514;28;45597;-76
2024/04/04 05:51:47;;;;;;;;;0.00;0.00;;;;;22.70;45.21;100449.13;4937871;28;45752;-76
2024/04/04 05:54:13;;;;;;;;;0.00;0.00;;;;;22.51;45.01;100418.78;4930725;28;46208;-76
2024/04/04 05:56:39;;;;;;;;;0.00;0.00;;;;;22.73;44.85;100454.06;4931078;28;45462;-76
2024/04/04 05:59:04;;;;;;;;;0.00;0.00;;;;;22.73;44.91;100455.88;4929885;28;45836;-80
2024/04/04 06:01:29;;;;;;;;;0.00;0.00;;;;;22.65;44.92;100448.88;4938599;28;45501;-78
2024/04/04 06:03:54;;;;;;;;;2.00;0.67;;;;;22.65;45.22;100453.34;4938896;28;45704;-87
2024/04/04 06:06:20;;;;;;;;;0.00;0.00;;;;;22.74;45.40;100471.59;4939148;28;45571;-80
2024/04/04 06:08:45;;;;;;;;;0.00;0.00;;;;;22.75;44.85;100477.72;4939203;28;45504;-78
2024/04/04 06:11:10;;;;;;;;;1.00;0.00;;;;;22.76;45.34;100475.91;4937682;28;45702;-75
2024/04/04 06:13:37;;;;;;;;;1.00;0.00;;;;;22.48;45.01;100427.94;4939274;28;46137;-74
2024/04/04 06:16:04;;;;;;;;;0.00;0.00;;;;;22.72;45.10;100473.63;4940535;28;45315;-76
2024/04/04 06:18:29;;;;;;;;;1.00;1.00;;;;;22.64;44.69;100447.22;4939042;28;45470;-75
2024/04/04 06:20:55;;;;;;;;;0.00;0.00;;;;;22.69;44.98;100458.06;4940521;28;45339;-76
2024/04/04 06:23:20;;;;;;;;;0.00;0.00;;;;;22.78;45.36;100474.69;4940487;28;45498;-75
2024/04/04 06:25:46;;;;;;;;;0.00;0.00;;;;;22.74;45.12;100462.84;4939948;28;45382;-76
2024/04/04 06:28:11;;;;;;;;;0.00;0.00;;;;;22.79;45.35;100476.34;4940170;28;45347;-76
2024/04/04 06:30:36;;;;;;;;;0.67;0.00;;;;;22.67;44.96;100440.72;4940487;28;45426;-76
2024/04/04 06:33:02;;;;;;;;;0.00;0.00;;;;;22.78;45.04;100466.72;4940186;28;46305;-75
2024/04/04 06:35:27;;;;;;;;;0.00;0.00;;;;;22.73;44.89;100462.00;4940299;28;45405;-76
2024/04/04 06:37:53;;;;;;;;;0.00;0.00;;;;;22.77;45.18;100473.03;4940159;28;45361;-75
2024/04/04 06:40:18;;;;;;;;;0.00;0.00;;;;;22.63;45.06;100462.34;4940100;28;45434;-76
2024/04/04 06:42:43;;;;;;;;;0.00;0.00;;;;;22.78;45.10;100476.50;4939827;28;46044;-76
2024/04/04 06:45:09;;;;;;;;;0.67;0.33;;;;;22.73;45.25;100477.94;4939981;28;45384;-76
2024/04/04 06:47:41;;;;;;;;;0.00;0.00;;;;;22.78;44.77;100484.47;4940098;28;45332;-76
2024/04/04 06:50:07;;;;;;;;;0.00;0.00;;;;;22.66;45.04;100474.38;4940202;28;45456;-76
2024/04/04 06:52:32;;;;;;;;;0.33;0.00;;;;;22.76;45.39;100482.03;4939585;28;45339;-76
2024/04/04 06:54:57;;;;;;;;;0.00;0.00;;;;;22.66;44.87;100460.31;4939867;28;45319;-76
2024/04/04 06:57:23;;;;;;;;;0.00;0.00;;;;;22.74;45.46;100479.53;4921956;28;45520;-76
2024/04/04 06:59:48;;;;;;;;;0.00;0.00;;;;;22.75;44.97;100490.97;4925325;28;45485;-76
2024/04/04 07:02:14;;;;;;;;;0.67;0.00;;;;;22.53;45.04;100453.91;4939753;28;46324;-76
2024/04/04 07:04:39;;;;;;;;;0.00;0.00;;;;;22.77;45.35;100474.91;4939982;28;45403;-76
2024/04/04 07:07:05;;;;;;;;;1.00;0.00;;;;;22.71;44.95;100472.00;4938682;28;45343;-76
2024/04/04 07:09:30;;;;;;;;;0.00;0.00;;;;;22.76;45.12;100471.41;4939860;28;45371;-75
2024/04/04 07:11:56;;;;;;;;;0.00;0.00;;;;;22.50;44.70;100431.25;4939339;28;45374;-75
2024/04/04 07:14:21;;;;;;;;;0.00;0.00;;;;;22.74;45.04;100471.59;4939643;28;45378;-77
2024/04/04 07:16:46;;;;;;;;;0.00;0.00;;;;;22.77;44.76;100478.34;4939801;28;45574;-75
2024/04/04 07:19:12;;;;;;;;;0.00;0.00;;;;;22.71;45.29;100481.78;4938446;28;45434;-76
2024/04/04 07:21:37;;;;;;;;;0.00;0.00;;;;;22.79;45.30;100480.81;4939416;28;45389;-77
2024/04/04 07:24:02;;;;;;;;;0.00;0.00;;;;;22.80;44.99;100482.44;4939429;28;45447;-76
2024/04/04 07:26:28;;;;;;;;;1.67;0.00;;;;;22.80;44.97;100482.44;4939080;28;45226;-76
2024/04/04 07:28:53;;;;;;;;;0.67;0.00;;;;;22.81;45.18;100479.59;4939551;28;45292;-76
2024/04/04 07:31:18;;;;;;;;;1.00;0.00;;;;;22.84;44.88;100479.22;4939337;28;46550;-76
2024/04/04 07:33:45;;;;;;;;;0.00;0.00;;;;;22.72;45.14;100467.50;4939472;28;45338;-76
2024/04/04 07:36:10;;;;;;;;;0.67;0.00;;;;;22.79;44.74;100481.66;4939178;28;45384;-75
2024/04/04 07:38:37;;;;;;;;;0.00;0.00;;;;;22.90;45.07;100498.03;4939295;28;45465;-76
2024/04/04 07:41:04;;;;;;;;;1.33;0.00;;;;;22.86;44.75;100486.97;4938725;28;46205;-76
2024/04/04 07:43:29;;;;;;;;;0.00;0.00;;;;;22.89;44.62;100491.91;4939113;28;45385;-75
2024/04/04 07:45:55;;;;;;;;;0.00;0.00;;;;;22.92;45.12;100496.00;4937912;28;45408;-77
2024/04/04 07:48:22;;;;;;;;;0.00;0.00;;;;;22.98;44.78;100497.84;4939094;28;45351;-76
2024/04/04 07:50:47;;;;;;;;;0.00;0.00;;;;;23.01;44.82;100504.59;4939180;28;46153;-77
2024/04/04 07:53:13;;;;;;;;;0.00;0.00;;;;;23.00;44.87;100498.50;4939029;28;45197;-76
2024/04/04 07:55:38;;;;;;;;;1.00;0.00;;;;;23.04;44.43;100506.88;4938813;28;45295;-76
2024/04/04 07:58:04;;;;;;;;;0.00;0.00;;;;;23.05;45.11;100511.19;4939249;28;45425;-77
2024/04/04 08:00:31;;;;;;;;;2.00;0.00;;;;;23.04;44.93;100509.53;4938796;28;47262;-76
2024/04/04 08:02:59;;;;;;;;;0.00;0.00;;;;;23.03;45.01;100518.50;4938842;28;45443;-76
2024/04/04 08:05:25;;;;;;;;;0.67;0.00;;;;;23.07;44.55;100517.94;4938898;28;45413;-76
2024/04/04 08:07:50;;;;;;;;;0.00;0.00;;;;;23.06;44.59;100526.88;4938941;28;45581;-76
2024/04/04 08:10:17;;;;;;;;;0.00;0.00;;;;;23.04;44.48;100520.97;4938176;28;46147;-76
2024/04/04 08:12:43;;;;;;;;;0.00;0.00;;;;;22.99;44.56;100503.97;4938890;28;45438;-75
2024/04/04 08:15:12;;;;;;;;;0.00;0.00;;;;;23.24;44.41;100538.00;4938843;28;45219;-75
2024/04/04 08:17:40;;;;;;;;;0.00;0.00;;;;;23.28;44.57;100537.44;4938840;28;45422;-76
2024/04/04 08:20:08;;;;;;;;;0.00;0.00;;;;;23.24;44.44;100530.84;4938439;28;46181;-76
2024/04/04 08:22:34;;;;;;;;;0.67;0.67;;;;;23.32;44.24;100529.06;4938696;28;45310;-76
2024/04/04 08:24:59;;;;;;;;;0.00;0.00;;;;;23.41;44.76;100557.09;4938164;28;45324;-76
2024/04/04 08:27:25;;;;;;;;;0.00;0.00;;;;;23.40;44.09;100548.31;4938626;28;45283;-74
2024/04/04 08:29:51;;;;;;;;;0.33;0.00;;;;;23.44;44.16;100550.56;4938493;28;46270;-76
2024/04/04 08:32:17;;;;;;;;;0.00;0.00;;;;;23.33;44.20;100528.88;4938443;28;45457;-76
2024/04/04 08:34:43;;;;;;;;;0.00;0.00;;;;;23.48;44.25;100557.13;4938765;28;45398;-76
2024/04/04 08:37:08;;;;;;;;;1.00;0.00;;;;;23.46;44.36;100553.84;4938353;28;45422;-76
2024/04/04 08:39:34;;;;;;;;;0.00;0.00;;;;;23.41;44.38;100546.47;4937823;28;45458;-77
2024/04/04 08:41:59;;;;;;;;;1.00;0.33;;;;;23.44;44.01;100551.41;4938393;28;45344;-74
2024/04/04 08:44:26;;;;;;;;;0.00;0.00;;;;;23.54;44.04;100566.16;4938325;28;45396;-75
2024/04/04 08:46:53;;;;;;;;;1.33;0.00;;;;;23.45;44.18;100558.31;4937196;28;45436;-76
2024/04/04 08:49:20;;;;;;;;;0.00;0.00;;;;;23.55;44.21;100563.31;4938032;28;46316;-76
2024/04/04 08:51:47;;;;;;;;;0.67;0.00;;;;;23.50;44.52;100565.72;4937973;28;45453;-76
2024/04/04 08:54:13;;;;;;;;;0.00;0.00;;;;;23.57;44.04;100584.38;4937931;28;45367;-76
2024/04/04 08:56:40;;;;;;;;;0.00;0.00;;;;;23.56;44.03;100577.41;4938299;28;45588;-77
2024/04/04 08:59:06;;;;;;;;;0.00;0.00;;;;;23.55;44.54;100579.22;4938007;28;45372;-77
2024/04/04 09:01:31;;;;;;;;;1.00;0.00;;;;;23.47;44.09;100574.88;4938146;28;45339;-77
2024/04/04 09:03:57;;;;;;;;;2.00;0.00;;;;;23.34;44.32;100559.69;4937980;28;46025;-76
2024/04/04 09:06:24;;;;;;;;;0.00;0.00;;;;;23.50;44.27;100585.13;4938163;28;45291;-77
2024/04/04 09:08:53;;;;;;;;;0.00;0.00;;;;;23.51;44.42;100581.47;4937563;28;47146;-77
2024/04/04 09:11:26;;;;;;;;;0.00;0.00;;;;;23.47;44.35;100587.34;4937906;28;45430;-76
2024/04/04 09:14:09;;;;;;;;;0.00;0.00;;;;;23.55;44.29;100583.75;4938058;28;45450;-76
2024/04/04 09:16:38;;;;;;;;;0.33;0.00;;;;;23.54;44.62;100593.53;4938019;28;45478;-76
2024/04/04 09:19:21;;;;;;;;;0.00;0.00;;;;;23.49;44.28;100591.47;4936374;28;47075;-76
2024/04/04 09:21:47;;;;;;;;;0.00;0.00;;;;;23.54;44.03;100600.69;4937181;28;45396;-74
2024/04/04 09:24:16;;;;;;;;;0.00;0.00;;;;;23.47;44.11;100592.66;4936022;28;45307;-74
2024/04/04 09:26:49;;;;;;;;;0.00;0.00;;;;;23.40;44.19;100579.34;4937868;28;45240;-77
2024/04/04 09:29:16;;;;;;;;;0.00;0.00;;;;;23.53;44.26;100594.53;4937795;28;45494;-77
2024/04/04 09:31:43;;;;;;;;;0.00;0.00;;;;;23.41;44.45;100591.59;4937612;28;45472;-77
2024/04/04 09:34:13;;;;;;;;;0.00;0.00;;;;;23.50;44.43;100613.53;4937652;28;45454;-76
2024/04/04 09:36:41;;;;;;;;;1.00;0.00;;;;;23.45;44.15;100610.59;4936969;28;45445;-76
2024/04/04 09:39:12;;;;;;;;;0.00;0.00;;;;;23.18;43.81;100563.50;4937245;28;47233;-76
2024/04/04 09:41:39;;;;;;;;;0.00;0.00;;;;;23.53;44.16;100626.41;4937362;28;45476;-77
2024/04/04 09:44:05;;;;;;;;;0.67;0.00;;;;;23.54;44.26;100620.09;4937531;28;45386;-76
2024/04/04 09:46:35;;;;;;;;;0.00;0.00;;;;;23.52;44.27;100620.28;4936230;28;45517;-77
2024/04/04 09:49:01;;;;;;;;;0.00;0.00;;;;;23.47;44.15;100605.94;4937182;28;46102;-77
2024/04/04 09:51:27;;;;;;;;;0.00;0.00;;;;;23.49;44.17;100619.84;4937080;28;45331;-76
2024/04/04 09:53:54;;;;;;;;;0.00;0.00;;;;;23.50;44.16;100632.09;4937502;28;45485;-76
2024/04/04 09:56:21;;;;;;;;;0.00;0.00;;;;;23.55;44.15;100640.31;4937401;28;45453;-76
2024/04/04 09:58:47;;;;;;;;;0.00;0.00;;;;;23.44;43.94;100627.56;4937166;28;46378;-76
2024/04/04 10:01:22;;;;;;;;;1.33;0.00;;;;;23.55;44.65;100636.84;4937114;28;45351;-75
2024/04/04 10:03:53;;;;;;;;;0.00;0.00;;;;;23.55;44.24;100632.34;4937504;28;45364;-75
2024/04/04 10:06:43;;;;;;;;;0.33;0.00;;;;;23.55;44.10;100631.53;4936791;28;45289;-76
2024/04/04 10:09:22;;;;;;;;;0.33;0.00;;;;;23.56;44.47;100647.28;4936996;28;46221;-76
2024/04/04 10:11:49;;;;;;;;;0.00;0.00;;;;;23.56;44.17;100638.47;4937102;28;45469;-75
2024/04/04 10:14:16;;;;;;;;;0.00;0.00;;;;;23.55;44.23;100642.97;4937247;28;45412;-76
2024/04/04 10:16:52;;;;;;;;;0.00;0.00;;;;;23.23;44.26;100587.63;4937307;28;45300;-76
2024/04/04 10:19:20;;;;;;;;;0.00;0.00;;;;;23.49;44.41;100631.31;4936545;28;46181;-75
2024/04/04 10:21:46;;;;;;;;;0.00;0.00;;;;;23.51;44.28;100636.41;4936983;28;45355;-76
2024/04/04 10:24:28;;;;;;;;;0.00;0.00;;;;;23.59;44.21;100662.00;4937112;28;45379;-75
2024/04/04 10:26:57;;;;;;;;;0.00;0.00;;;;;23.57;44.21;100640.13;4937043;28;45416;-76
2024/04/04 10:29:22;;;;;;;;;0.00;0.00;;;;;23.54;44.29;100641.34;4936766;28;46119;-76
2024/04/04 10:31:48;;;;;;;;;0.00;0.00;;;;;23.60;44.13;100656.47;4936759;28;45430;-76
2024/04/04 10:34:14;;;;;;;;;1.00;0.00;;;;;23.60;44.20;100648.50;4938197;28;45319;-75
2024/04/04 10:36:43;;;;;;;;;1.00;0.00;;;;;23.46;44.11;100634.31;4940050;28;45375;-76
2024/04/04 10:39:12;;;;;;;;;0.00;0.00;;;;;23.61;43.97;100654.66;4939999;28;47078;-75
2024/04/04 10:41:41;;;;;;;;;0.00;0.00;;;;;23.61;44.02;100644.84;4939898;28;45533;-76
2024/04/04 10:44:10;;;;;;;;;0.00;0.00;;;;;23.62;44.01;100649.16;4940057;28;45741;-76
2024/04/04 10:46:52;;;;;;;;;0.00;0.00;;;;;23.49;43.84;100614.53;4940234;28;45334;-76
2024/04/04 10:49:19;;;;;;;;;0.00;0.00;;;;;23.61;44.41;100657.31;4939545;28;47260;-76
2024/04/04 10:51:49;;;;;;;;;0.00;0.00;;;;;23.64;44.26;100664.88;4939844;28;45575;-76
2024/04/04 10:54:16;;;;;;;;;0.00;0.00;;;;;23.65;44.01;100650.59;4938739;28;45455;-76
2024/04/04 10:56:42;;;;;;;;;0.00;0.00;;;;;23.65;44.04;100658.56;4940103;28;45319;-76
2024/04/04 10:59:07;;;;;;;;;0.00;0.00;;;;;23.66;43.89;100660.19;4939575;28;47260;-76
2024/04/04 11:01:33;;;;;;;;;1.00;1.00;;;;;23.51;43.81;100642.56;4939757;28;45372;-76
2024/04/04 11:03:58;;;;;;;;;0.67;0.00;;;;;23.65;43.92;100647.13;4939625;28;45276;-76
2024/04/04 11:06:28;;;;;;;;;0.67;0.33;;;;;23.61;44.03;100657.31;4939767;28;45425;-77
2024/04/04 11:09:00;;;;;;;;;0.00;0.00;;;;;23.66;43.69;100656.72;4939712;28;46048;-77
2024/04/04 11:11:25;;;;;;;;;0.00;0.00;;;;;23.46;43.62;100607.78;4939602;28;45390;-76
2024/04/04 11:13:51;;;;;;;;;0.67;0.00;;;;;23.65;43.65;100647.13;4938317;28;45371;-75
2024/04/04 11:16:19;;;;;;;;;0.00;0.00;;;;;23.65;44.15;100649.78;4939676;28;45338;-77
2024/04/04 11:18:44;;;;;;;;;0.00;0.00;;;;;23.60;43.97;100656.47;4939184;28;45405;-77
2024/04/04 11:21:10;;;;;;;;;0.00;0.00;;;;;23.64;43.93;100662.22;4939419;28;45424;-76